createdAt,value
2022-08-19T00:01:39.498Z,12.15
2022-08-19T00:04:41.343Z,12.25
2022-08-19T00:07:44.655Z,11.75
2022-08-19T00:10:46.936Z,13.00
2022-08-19T00:13:51.173Z,12.75
2022-08-19T00:16:55.582Z,11.95
2022-08-19T00:19:57.397Z,11.68
2022-08-19T00:22:59.106Z,14.73
2022-08-19T00:26:00.771Z,13.02
2022-08-19T00:29:02.874Z,13.23
2022-08-19T00:32:05.499Z,12.25
2022-08-19T00:35:07.869Z,12.43
2022-08-19T00:38:09.545Z,13.75
2022-08-19T00:41:15.551Z,12.07
2022-08-19T00:47:24.668Z,12.95
2022-08-19T00:50:28.945Z,15.48
2022-08-19T00:53:32.750Z,15.73
2022-08-19T00:56:35.128Z,14.95
2022-08-19T01:00:00.356Z,13.68
2022-08-19T01:03:01.170Z,12.30
2022-08-19T01:06:03.411Z,13.43
2022-08-19T01:09:06.182Z,12.40
2022-08-19T01:12:08.638Z,13.10
2022-08-19T01:15:13.275Z,13.20
2022-08-19T01:18:17.821Z,14.13
2022-08-19T01:21:28.941Z,13.77
2022-08-19T01:24:31.745Z,12.98
2022-08-19T01:27:47.903Z,12.68
2022-08-19T01:30:51.306Z,13.48
2022-08-19T01:33:55.554Z,13.60
2022-08-19T01:36:57.304Z,13.15
2022-08-19T01:39:59.091Z,13.50
2022-08-19T01:43:01.393Z,12.18
2022-08-19T01:46:04.497Z,12.95
2022-08-19T01:49:07.480Z,13.15
2022-08-19T01:52:09.221Z,12.77
2022-08-19T01:55:15.836Z,13.88
2022-08-19T01:58:21.960Z,14.98
2022-08-19T02:04:29.393Z,11.70
2022-08-19T02:07:31.119Z,12.70
2022-08-19T02:10:33.193Z,12.88
2022-08-19T02:13:35.781Z,11.00
2022-08-19T02:16:38.329Z,12.43
2022-08-19T02:19:41.091Z,12.38
2022-08-19T02:22:43.511Z,12.98
2022-08-19T02:25:48.876Z,15.10
2022-08-19T02:28:50.593Z,12.65
2022-08-19T02:31:52.633Z,13.00
2022-08-19T02:34:54.419Z,13.15
2022-08-19T02:38:14.588Z,12.65
2022-08-19T02:41:23.888Z,15.18
2022-08-19T05:29:46.723Z,11.00
2022-08-19T05:32:54.024Z,14.18
2022-08-19T05:36:06.126Z,11.40
2022-08-19T05:39:17.907Z,11.18
2022-08-19T05:42:21.346Z,12.50
2022-08-19T05:45:25.923Z,12.63
2022-08-19T05:48:28.244Z,12.85
2022-08-19T05:51:36.117Z,12.13
2022-08-19T05:54:43.828Z,12.68
2022-08-19T05:57:45.815Z,11.90
2022-08-19T06:00:47.944Z,11.90
2022-08-19T06:03:52.237Z,12.70
2022-08-19T06:07:01.378Z,14.23
2022-08-19T06:10:22.365Z,12.48
2022-08-19T06:13:37.167Z,12.57
2022-08-19T06:16:44.898Z,12.77
2022-08-19T06:20:05.244Z,13.70
2022-08-19T06:23:19.089Z,14.45
2022-08-19T06:27:09.166Z,13.73
2022-08-19T06:30:28.479Z,13.75
2022-08-19T06:33:39.971Z,13.07
2022-08-19T06:36:45.494Z,14.48
2022-08-19T06:39:50.875Z,16.08
2022-08-19T06:43:03.944Z,14.27
2022-08-19T06:46:17.482Z,13.80
2022-08-19T06:49:22.052Z,14.98
2022-08-19T06:52:36.549Z,13.05
2022-08-19T06:55:39.054Z,11.98
2022-08-19T06:58:42.791Z,15.45
2022-08-19T07:01:51.311Z,14.70
2022-08-19T07:04:55.149Z,15.02
2022-08-19T07:08:04.752Z,13.68
2022-08-19T07:11:11.244Z,14.85
2022-08-19T07:14:19.104Z,14.90
2022-08-19T07:17:25.111Z,16.15
2022-08-19T07:20:28.498Z,15.05
2022-08-19T07:23:30.696Z,15.52
2022-08-19T07:26:39.863Z,16.02
2022-08-19T07:29:44.278Z,15.65
2022-08-19T07:32:46.206Z,14.90
2022-08-19T07:35:49.821Z,18.55
2022-08-19T07:38:52.766Z,18.40
2022-08-19T07:41:56.473Z,16.02
2022-08-19T07:44:59.654Z,18.23
2022-08-19T07:48:02.176Z,15.63
2022-08-19T07:51:09.212Z,16.17
2022-08-19T07:54:18.622Z,16.30
2022-08-19T07:57:25.347Z,16.00
2022-08-19T08:00:32.078Z,16.70
2022-08-19T08:03:54.423Z,16.77
2022-08-19T08:07:14.769Z,15.43
2022-08-19T08:10:21.157Z,16.67
2022-08-19T08:13:24.476Z,16.17
2022-08-19T08:16:31.143Z,17.85
2022-08-19T08:19:34.160Z,16.17
2022-08-19T08:22:54.673Z,15.85
2022-08-19T08:25:59.261Z,16.48
2022-08-19T08:29:01.024Z,16.95
2022-08-19T08:32:03.022Z,18.48
2022-08-19T08:35:11.319Z,15.75
2022-08-19T08:38:13.362Z,17.75
2022-08-19T08:41:50.211Z,16.27
2022-08-19T08:45:14.668Z,16.45
2022-08-19T08:48:28.147Z,17.65
2022-08-19T08:51:35.951Z,17.27
2022-08-19T08:54:55.031Z,17.52
2022-08-19T08:58:46.174Z,16.58
2022-08-19T09:01:47.938Z,18.33
2022-08-19T09:04:49.896Z,18.20
2022-08-19T09:07:59.566Z,35.70
2022-08-19T09:11:07.593Z,83.07
2022-08-19T09:14:40.601Z,18.95
2022-08-19T09:17:40.573Z,19.15
2022-08-19T09:20:43.029Z,18.90
2022-08-19T09:23:44.796Z,15.90
2022-08-19T09:26:52.741Z,16.52
2022-08-19T09:29:55.404Z,15.95
2022-08-19T09:32:57.266Z,17.75
2022-08-19T09:36:10.773Z,17.17
2022-08-19T09:39:16.507Z,18.15
2022-08-19T09:45:33.263Z,17.15
2022-08-19T09:48:35.019Z,18.23
2022-08-19T09:51:36.833Z,17.48
2022-08-19T09:54:39.948Z,15.70
2022-08-19T09:57:45.900Z,17.90
2022-08-19T10:00:51.011Z,16.00
2022-08-19T10:06:57.149Z,19.20
2022-08-19T10:09:59.971Z,15.48
2022-08-19T10:13:01.687Z,15.82
2022-08-19T10:16:07.255Z,17.38
2022-08-19T10:19:09.578Z,15.43
2022-08-19T10:22:15.343Z,17.17
2022-08-19T10:28:19.677Z,15.38
2022-08-19T10:32:02.147Z,14.88
2022-08-19T10:34:48.471Z,13.98
2022-08-19T10:37:57.287Z,18.13
2022-08-19T10:41:14.519Z,14.65
2022-08-19T10:44:18.001Z,15.05
2022-08-19T10:47:25.759Z,13.50
2022-08-19T10:50:46.616Z,15.27
2022-08-19T10:53:49.640Z,15.55
2022-08-19T10:56:53.881Z,17.77
2022-08-19T10:59:56.971Z,15.85
2022-08-19T11:02:58.602Z,18.13
2022-08-19T11:06:02.125Z,17.33
2022-08-19T11:09:04.300Z,17.83
2022-08-19T11:12:06.306Z,17.70
2022-08-19T11:15:12.082Z,18.60
2022-08-19T11:21:18.400Z,15.32
2022-08-19T11:24:23.457Z,16.77
2022-08-19T11:27:25.162Z,15.13
2022-08-19T11:30:26.776Z,14.38
2022-08-19T11:33:28.451Z,15.82
2022-08-19T11:36:31.537Z,14.48
2022-08-19T11:39:35.373Z,11.90
2022-08-19T11:42:55.594Z,12.88
2022-08-19T11:45:58.493Z,13.30
2022-08-19T11:49:01.711Z,12.20
2022-08-19T11:52:03.755Z,13.20
2022-08-19T11:55:06.380Z,13.25
2022-08-19T11:58:08.750Z,13.35
2022-08-19T12:01:22.970Z,13.63
2022-08-19T12:04:24.652Z,13.63
2022-08-19T12:07:26.460Z,15.10
2022-08-19T12:10:28.109Z,13.40
2022-08-19T12:13:31.742Z,13.38
2022-08-19T12:16:34.353Z,12.82
2022-08-19T12:19:38.486Z,11.35
2022-08-19T12:22:42.307Z,12.48
2022-08-19T12:25:52.528Z,10.98
2022-08-19T12:28:54.745Z,12.90
2022-08-19T12:32:02.311Z,12.32
2022-08-19T12:35:08.176Z,13.70
2022-08-19T12:38:10.023Z,11.93
2022-08-19T12:41:14.878Z,12.35
2022-08-19T12:44:17.059Z,13.20
2022-08-19T12:47:22.048Z,11.32
2022-08-19T12:50:23.794Z,11.75
2022-08-19T12:53:26.164Z,12.95
2022-08-19T12:56:28.422Z,12.60
2022-08-19T12:59:29.993Z,13.25
2022-08-19T13:02:33.140Z,13.85
2022-08-19T13:05:40.744Z,14.73
2022-08-19T13:08:42.771Z,13.45
2022-08-19T13:11:48.084Z,12.50
2022-08-19T13:14:51.010Z,12.88
2022-08-19T13:17:54.738Z,17.02
2022-08-19T13:20:57.426Z,13.30
2022-08-19T13:23:59.502Z,12.63
2022-08-19T13:27:02.037Z,12.88
2022-08-19T13:30:23.595Z,13.88
2022-08-19T13:33:26.672Z,12.43
2022-08-19T13:36:28.394Z,10.68
2022-08-19T13:39:31.549Z,12.52
2022-08-19T13:42:33.368Z,13.85
2022-08-19T13:45:35.441Z,10.88
2022-08-19T13:48:37.139Z,10.40
2022-08-19T13:51:40.724Z,11.70
2022-08-19T13:54:44.797Z,11.18
2022-08-19T13:57:46.857Z,12.13
2022-08-19T14:00:49.272Z,11.27
2022-08-19T14:03:51.339Z,10.93
2022-08-19T14:06:52.999Z,10.43
2022-08-19T14:09:54.659Z,11.23
2022-08-19T14:12:59.304Z,12.65
2022-08-19T14:16:01.108Z,12.25
2022-08-19T14:19:02.831Z,12.02
2022-08-19T14:22:05.532Z,10.93
2022-08-19T14:25:13.098Z,11.45
2022-08-19T14:28:14.813Z,11.98
2022-08-19T14:31:20.297Z,12.02
2022-08-19T14:34:23.229Z,10.77
2022-08-19T14:37:25.129Z,11.95
2022-08-19T14:40:28.887Z,11.45
2022-08-19T14:43:30.664Z,10.82
2022-08-19T14:46:32.348Z,11.43
2022-08-19T14:53:15.003Z,10.90
2022-08-19T14:56:27.256Z,11.93
2022-08-19T14:59:35.203Z,11.18
2022-08-19T15:02:45.894Z,11.90
2022-08-19T15:05:50.386Z,11.05
2022-08-19T15:08:52.931Z,11.00
2022-08-19T15:11:54.758Z,11.10
2022-08-19T15:14:56.987Z,10.93
2022-08-19T15:18:03.376Z,12.82
2022-08-19T15:21:05.496Z,10.90
2022-08-19T15:24:07.539Z,10.65
2022-08-19T15:27:32.727Z,11.02
2022-08-19T15:30:34.694Z,12.98
2022-08-19T15:33:38.048Z,10.27
2022-08-19T15:36:40.277Z,10.02
2022-08-19T15:39:42.658Z,9.38
2022-08-19T15:42:53.459Z,11.98
2022-08-19T15:45:55.252Z,10.40
2022-08-19T15:49:00.314Z,13.02
2022-08-19T15:52:02.561Z,10.00
2022-08-19T15:55:09.258Z,10.93
2022-08-19T15:58:36.511Z,10.20
2022-08-19T16:01:57.045Z,10.13
2022-08-19T16:05:17.837Z,10.38
2022-08-19T16:08:20.446Z,9.80
2022-08-19T16:11:29.298Z,9.85
2022-08-19T16:14:34.927Z,9.40
2022-08-19T16:17:37.297Z,8.57
2022-08-19T16:20:39.213Z,9.93
2022-08-19T16:23:41.921Z,10.85
2022-08-19T16:26:45.381Z,9.35
2022-08-19T16:29:47.346Z,10.55
2022-08-19T16:32:49.561Z,9.90
2022-08-19T16:35:57.805Z,9.93
2022-08-19T16:39:18.421Z,10.40
2022-08-19T16:42:21.107Z,13.38
2022-08-19T16:45:23.221Z,9.48
2022-08-19T16:48:29.922Z,11.50
2022-08-19T16:51:33.870Z,10.10
2022-08-19T16:54:37.761Z,11.15
2022-08-19T16:57:39.951Z,10.23
2022-08-19T17:00:41.742Z,10.00
2022-08-19T17:03:43.632Z,10.05
2022-08-19T17:06:45.618Z,11.68
2022-08-19T17:09:47.275Z,10.80
2022-08-19T17:12:54.879Z,10.57
2022-08-19T17:15:56.911Z,11.20
2022-08-19T17:19:01.884Z,11.32
2022-08-19T17:22:03.638Z,10.95
2022-08-19T17:25:05.710Z,11.10
2022-08-19T17:28:16.629Z,10.65
2022-08-19T17:31:21.318Z,12.82
2022-08-19T17:34:23.043Z,11.20
2022-08-19T17:37:24.814Z,11.05
2022-08-19T17:40:29.149Z,11.50
2022-08-19T17:43:36.533Z,12.10
2022-08-19T17:46:41.174Z,10.93
2022-08-19T17:49:43.030Z,12.18
2022-08-19T17:52:44.801Z,12.13
2022-08-19T17:55:48.084Z,11.77
2022-08-19T17:59:00.084Z,12.80
2022-08-19T18:02:05.310Z,12.27
2022-08-19T18:05:07.179Z,12.07
2022-08-19T18:08:10.627Z,11.98
2022-08-19T18:11:12.662Z,11.48
2022-08-19T18:14:15.287Z,12.32
2022-08-19T18:17:19.321Z,11.88
2022-08-19T18:20:21.462Z,11.32
2022-08-19T18:26:48.138Z,11.38
2022-08-19T18:29:50.056Z,10.10
2022-08-19T18:32:53.386Z,10.88
2022-08-19T18:35:55.094Z,10.38
2022-08-19T18:39:15.362Z,10.60
2022-08-19T18:42:37.652Z,9.77
2022-08-19T18:46:00.172Z,9.50
2022-08-19T18:49:05.405Z,10.20
2022-08-19T18:52:07.559Z,10.27
2022-08-19T18:55:09.552Z,12.45
2022-08-19T18:58:11.351Z,10.70
2022-08-19T19:01:19.222Z,10.52
2022-08-19T19:04:24.466Z,10.55
2022-08-19T19:07:27.391Z,9.65
2022-08-19T19:10:29.092Z,11.40
2022-08-19T19:13:33.118Z,12.27
2022-08-19T19:16:34.727Z,11.18
2022-08-19T19:19:36.583Z,10.07
2022-08-19T19:22:38.552Z,9.85
2022-08-19T19:25:49.904Z,10.35
2022-08-19T19:28:52.917Z,10.38
2022-08-19T19:31:56.131Z,10.73
2022-08-19T19:34:57.954Z,9.90
2022-08-19T19:37:59.833Z,9.48
2022-08-19T19:41:02.239Z,9.32
2022-08-19T19:44:30.597Z,9.57
2022-08-19T19:47:28.273Z,9.57
2022-08-19T19:50:30.256Z,11.38
2022-08-19T19:53:34.347Z,10.48
2022-08-19T19:56:36.330Z,10.05
2022-08-19T19:59:38.152Z,9.30
2022-08-19T20:02:50.501Z,11.20
2022-08-19T20:05:52.685Z,9.05
2022-08-19T20:09:28.535Z,9.70
2022-08-19T20:12:41.066Z,7.80
2022-08-19T20:15:46.813Z,8.48
2022-08-19T20:18:48.931Z,7.70
2022-08-19T20:21:51.537Z,8.10
2022-08-19T20:24:53.884Z,7.78
2022-08-19T20:32:16.625Z,7.10
2022-08-19T20:35:21.448Z,7.43
2022-08-19T20:38:23.538Z,7.60
2022-08-19T20:41:25.640Z,7.43
2022-08-19T20:44:27.427Z,7.72
2022-08-19T20:47:32.899Z,7.30
2022-08-19T20:50:36.104Z,7.68
2022-08-19T20:53:38.789Z,6.50
2022-08-19T20:56:40.666Z,6.50
2022-08-19T20:59:42.431Z,6.25
2022-08-19T21:02:44.268Z,7.28
2022-08-19T21:05:47.559Z,6.20
2022-08-19T21:08:49.491Z,5.78
2022-08-19T21:11:54.032Z,5.72
2022-08-19T21:14:55.788Z,5.65
2022-08-19T21:17:58.410Z,5.95
2022-08-19T21:21:00.276Z,6.15
2022-08-19T21:24:02.215Z,5.60
2022-08-19T21:27:04.073Z,6.65
2022-08-19T21:30:07.440Z,6.07
2022-08-19T21:33:10.681Z,5.65
2022-08-19T21:36:12.613Z,5.65
2022-08-19T21:39:14.646Z,5.43
2022-08-19T21:42:16.774Z,4.50
2022-08-19T21:45:19.569Z,4.72
2022-08-19T21:48:21.404Z,5.55
2022-08-19T21:51:23.397Z,5.57
2022-08-19T21:54:25.427Z,5.65
2022-08-19T21:57:27.352Z,5.72
2022-08-19T22:00:32.201Z,5.93
2022-08-19T22:03:35.754Z,4.80
2022-08-19T22:06:37.630Z,4.95
2022-08-19T22:09:40.962Z,4.72
2022-08-19T22:12:47.338Z,4.78
2022-08-19T22:15:55.151Z,5.95
2022-08-19T22:18:57.497Z,5.55
2022-08-19T22:21:59.259Z,5.63
2022-08-19T22:25:09.750Z,5.80
2022-08-19T22:28:13.986Z,4.57
2022-08-19T22:31:16.179Z,5.10
2022-08-19T22:34:18.254Z,3.95
2022-08-19T22:37:20.516Z,3.92
2022-08-19T22:40:22.287Z,4.13
2022-08-19T22:43:28.640Z,4.20
2022-08-19T22:46:33.798Z,5.25
2022-08-19T22:49:35.652Z,4.30
2022-08-19T22:52:37.587Z,4.10
2022-08-19T22:55:39.380Z,4.43
2022-08-19T22:58:42.374Z,4.80
2022-08-19T23:01:46.337Z,5.18
2022-08-19T23:04:48.080Z,4.57
2022-08-19T23:07:52.807Z,5.40
2022-08-19T23:10:54.766Z,4.80
2022-08-19T23:13:56.543Z,3.65
2022-08-19T23:16:59.164Z,4.88
2022-08-19T23:20:01.664Z,4.22
2022-08-19T23:23:06.726Z,4.70
2022-08-19T23:26:11.704Z,6.70
2022-08-19T23:29:32.766Z,4.60
2022-08-19T23:32:35.689Z,4.95
2022-08-19T23:35:38.384Z,4.30
2022-08-19T23:38:43.428Z,4.93
2022-08-19T23:41:45.277Z,4.95
2022-08-19T23:44:52.359Z,4.55
2022-08-19T23:47:55.492Z,4.22
2022-08-19T23:50:58.669Z,4.55
2022-08-19T23:54:00.492Z,4.28
2022-08-19T23:57:02.216Z,5.00
